Terminal Aerodrome Forecast
Issued by NWS

Home | Current Version | Previous Version | Text Only | Print | Product List | Glossary On
Versions: 1 2 3 4 5 6 7 8 9 10 11 12 13 14 15 16
000
FTAK31 PAJN 221128
TAFAJN
TAF
PAJN 221128Z 2212/2312 10010KT 4SM RA BR SCT035 OVC050
      TEMPO 2212/2216 3SM -RA BR BKN025 OVC035
     FM221900 11010KT 4SM RA BR SCT015 OVC030
     FM230200 11009KT P6SM -SHRA SCT020 OVC040=

USA.gov is the U.S. government's official web portal to all federal, state and local government web resources and services.